Main page
METAR-TAF:

METAR-TAF

Airports :

Linate Airport

Milan, Italy

latitude: 45-26N, longitude: 009-17E, elevation: 107 m

Current weather observation

The report was made 30 minutes ago, at 17:20 UTC
Wind 2 kt from the Southeast
Temperature 13°C
Humidity 94%
Pressure 1024 hPa
Visibility: 4000 m
Few clouds at a height of 1000 ft
Overcast at a height of 4000 ft
mist

METAR: LIML 151720Z 13002KT 4000 BR FEW010 OVC040 13/12 Q1024 NOSIG

Time: 18:50 (17:50 UTC)

Forecast

The report was made 50 minutes ago, at 17:00 UTC
Forecast valid from 15 at 18 UTC to 16 at 18 UTC
Wind 5 kt from variable directions
Visibility: 4000 m
Broken clouds at a height of 3000 ft
mist
Temporary
from 15 at 22 UTC to 16 at 07 UTC
Visibility: 1500 m
patches of fog

TAF: LIML 151700Z 1518/1618 VRB05KT 4000 BR BKN030 TEMPO 1522/1607 1500 BCFG

Weather observations and forecasts of more than 4000 airports (METAR and TAF reports).

The available stations are represented by yellow and red dots on the map.

Hover mouse over dot to see the name of the station.

Then click to see weather observations and forecasts.

To change the map : click on the green buttons with a black cross to zoom in, on the green button with a dash to zoom out, or on the green arrows for adjacent maps.


METAR-TAF: